Flight Track Log - Related Links

Times and Time Zones

All times are in EDT time to prevent confusion due to time zone crossing. See the N569TA flight status page for this flight to view local times or setup timezone preferences in your user account.


Time Position Orientation Groundspeed Altitude Reporting Facility
EDT Latitude Longitude Course Direction KTS MPH feet Rate Location/Type
Thu 08:29:22 AM 43.9833 -88.5833 259° West 177 204 1,900  Level KMKE
Thu 08:29:56 AM 43.9761 -88.6361 259° West 207 238 2,900 2,526 Climbing Minneapolis Center
Thu 08:30:57 AM 43.9742 -88.7228 268° West 231 266 5,900 3,024 Climbing Minneapolis Center
Thu 08:31:59 AM 43.9892 -88.8150 283° West 246 283 9,100 3,339 Climbing Minneapolis Center
Thu 08:33:01 AM 43.9508 -88.9053 239° Southwest 269 310 12,800 3,290 Climbing Minneapolis Center
Thu 08:34:03 AM 43.9092 -88.9964 238° Southwest 278 320 15,900 2,927 Climbing Minneapolis Center
Thu 08:35:04 AM 43.8658 -89.0869 236° Southwest 282 325 18,800 2,780 Climbing Minneapolis Center
Thu 08:36:06 AM 43.8175 -89.1931 238° Southwest 281 323 21,600 2,274 Climbing Minneapolis Center
Thu 08:37:08 AM 43.7733 -89.2872 237° Southwest 290 334 23,500 1,854 Climbing Minneapolis Center
Thu 08:38:09 AM 43.7267 -89.3853 237° Southwest 303 349 25,400 1,707 Climbing Minneapolis Center
Thu 08:39:11 AM 43.6878 -89.4664 236° Southwest 304 350 27,000 1,887 Climbing Minneapolis Center
Thu 08:40:13 AM 43.6353 -89.5783 237° Southwest 300 345 29,300 2,081 Climbing Minneapolis Center
Thu 08:41:15 AM 43.5917 -89.6689 236° Southwest 289 333 31,300 1,742 Climbing Minneapolis Center
Thu 08:42:17 AM 43.5467 -89.7717 239° Southwest 274 315 32,900 919 Climbing Minneapolis Center
Thu 08:43:19 AM 43.5300 -89.8786 258° West 285 328 33,200 774 Climbing Chicago Center
Thu 08:44:21 AM 43.5106 -89.9869 256° West 292 336 34,500 1,378 Climbing Chicago Center
Thu 08:45:34 AM 43.4903 -90.1050 257° West 275 316 36,300 1,378 Climbing Minneapolis Center
Thu 08:46:36 AM 43.4700 -90.2136 256° West 255 293 37,600 968 Climbing Minneapolis Center
Thu 08:47:38 AM 43.4519 -90.3064 255° West 249 287 38,300 581 Climbing Minneapolis Center
Thu 08:48:40 AM 43.4353 -90.4031 257° West 257 296 38,800 439 Climbing Minneapolis Center
Thu 08:49:41 AM 43.4181 -90.5025 257° West 266 306 39,200 439 Climbing Minneapolis Center
Thu 08:50:43 AM 43.3997 -90.6039 256° West 272 313 39,700 387 Climbing Minneapolis Center
Thu 08:51:45 AM 43.3814 -90.7081 256° West 280 322 40,000 145 Climbing Minneapolis Center
Thu 08:52:47 AM 43.3622 -90.8139 256° West 286 329 40,000  Level Minneapolis Center
Thu 08:53:48 AM 43.3383 -90.9467 256° West 297 342 40,000  Level Minneapolis Center
Thu 08:54:50 AM 43.3186 -91.0619 257° West 309 356 40,000  Level Minneapolis Center
Thu 08:55:52 AM 43.2967 -91.1767 255° West 313 360 40,000  Level Minneapolis Center
Thu 08:56:54 AM 43.2753 -91.2942 256° West 319 367 40,000  Level Minneapolis Center
Thu 08:57:56 AM 43.2542 -91.4133 256° West 324 373 40,000  Level Minneapolis Center
Thu 08:58:57 AM 43.2261 -91.5544 255° West 324 373 40,000  Level Minneapolis Center
Thu 08:59:59 AM 43.2033 -91.6731 255° West 325 374 40,000  Level Minneapolis Center
Thu 09:01:01 AM 43.1797 -91.7933 255° West 330 380 40,000  Level Minneapolis Center
Thu 09:02:03 AM 43.1575 -91.9119 256° West 328 377 40,000  Level Minneapolis Center
Thu 09:03:05 AM 43.1342 -92.0319 255° West 329 379 40,000  Level Minneapolis Center
Thu 09:04:06 AM 43.1072 -92.1728 255° West 323 372 40,000  Level Minneapolis Center
Thu 09:05:08 AM 43.0828 -92.2931 254° West 330 380 40,000  Level Minneapolis Center
Thu 09:06:10 AM 43.0594 -92.4133 255° West 331 381 40,000  Level Minneapolis Center
Thu 09:07:12 AM 43.0347 -92.5375 255° West 339 390 40,000  Level Minneapolis Center
Thu 09:08:13 AM 43.0100 -92.6578 254° West 335 386 40,000  Level Minneapolis Center
Thu 09:09:15 AM 42.9800 -92.8047 254° West 336 387 40,000  Level Minneapolis Center
Thu 09:10:17 AM 42.9561 -92.9256 255° West 336 387 40,000  Level Minneapolis Center
Thu 09:11:19 AM 42.9322 -93.0469 255° West 335 386 40,000  Level Minneapolis Center
Thu 09:12:20 AM 42.9072 -93.1664 254° West 332 382 40,000  Level Minneapolis Center
Thu 09:13:22 AM 42.8828 -93.2864 255° West 332 382 40,000  Level Minneapolis Center
Thu 09:14:24 AM 42.8578 -93.4056 254° West 332 382 40,000  Level Minneapolis Center
Thu 09:15:25 AM 42.8339 -93.5239 255° West 329 379 40,000  Level Minneapolis Center
Thu 09:16:27 AM 42.8053 -93.6650 255° West 324 373 40,000  Level Minneapolis Center
Thu 09:17:29 AM 42.7814 -93.7800 254° West 321 369 40,000  Level Minneapolis Center
Thu 09:18:31 AM 42.7564 -93.8961 254° West 321 369 40,000  Level Minneapolis Center
Thu 09:19:32 AM 42.7297 -94.0100 252° West 319 367 40,000  Level Minneapolis Center
Thu 09:20:34 AM 42.7050 -94.1261 254° West 321 369 40,000  Level Minneapolis Center
Thu 09:21:36 AM 42.6758 -94.2644 254° West 321 369 40,000  Level Minneapolis Center
Thu 09:22:37 AM 42.6514 -94.3811 254° West 323 372 40,000  Level Minneapolis Center
Thu 09:23:39 AM 42.6258 -94.4975 253° West 324 373 40,000  Level Minneapolis Center
Thu 09:24:53 AM 42.6011 -94.6067 253° West 324 373 40,000  Level Minneapolis Center
Thu 09:25:55 AM 42.5644 -94.7686 253° West 323 372 40,000  Level Minneapolis Center
Thu 09:26:57 AM 42.5386 -94.8861 253° West 324 373 40,000  Level Minneapolis Center
Thu 09:27:58 AM 42.5128 -95.0044 254° West 327 376 40,000  Level Minneapolis Center
Thu 09:29:00 AM 42.4858 -95.1206 253° West 325 374 40,000  Level Minneapolis Center
Thu 09:30:14 AM 42.4606 -95.2372 254° West 324 373 40,000  Level Minneapolis Center
Thu 09:31:16 AM 42.4286 -95.3767 253° West 323 372 40,000  Level Minneapolis Center
Thu 09:32:30 AM 42.3969 -95.5153 253° West 322 371 40,000  Level Minneapolis Center
Thu 09:33:44 AM 42.3656 -95.6528 253° West 319 367 40,000  Level Minneapolis Center
Thu 09:34:58 AM 42.3333 -95.7875 252° West 316 364 40,000  Level Minneapolis Center
Thu 09:36:00 AM 42.3014 -95.9250 253° West 319 367 40,000  Level Minneapolis Center
Thu 09:37:02 AM 42.2750 -96.0400 253° West 321 369 40,000  Level Minneapolis Center
Thu 09:38:04 AM 42.2481 -96.1542 252° West 321 369 40,000  Level Minneapolis Center
Thu 09:39:06 AM 42.2147 -96.2897 252° West 320 368 40,000  Level Minneapolis Center
Thu 09:40:08 AM 42.1878 -96.4075 253° West 324 373 40,000  Level Minneapolis Center
Thu 09:41:09 AM 42.1603 -96.5225 252° West 326 375 40,000  Level Minneapolis Center
Thu 09:42:11 AM 42.1314 -96.6372 251° West 325 374 40,000  Level Minneapolis Center
Thu 09:43:13 AM 42.1042 -96.7528 252° West 324 373 40,000  Level Minneapolis Center
Thu 09:44:15 AM 42.0761 -96.8678 252° West 325 374 40,000  Level Minneapolis Center
Thu 09:45:17 AM 42.0414 -97.0061 251° West 325 374 40,000  Level Minneapolis Center
Thu 09:46:19 AM 42.0144 -97.1206 252° West 324 373 40,000  Level Minneapolis Center
Thu 09:47:20 AM 41.9853 -97.2350 251° West 324 373 40,000  Level Minneapolis Center
Thu 09:48:22 AM 41.9575 -97.3494 252° West 324 373 40,000  Level Minneapolis Center
Thu 09:49:24 AM 41.9286 -97.4633 251° West 323 372 40,000  Level Minneapolis Center
Thu 09:50:26 AM 41.9011 -97.5767 252° West 321 369 40,000  Level Minneapolis Center
Thu 09:51:28 AM 41.8708 -97.6919 251° West 326 375 40,000  Level Minneapolis Center
Thu 09:52:29 AM 41.8428 -97.8058 252° West 324 373 40,000  Level Minneapolis Center
Thu 09:53:32 AM 41.8067 -97.9433 251° West 326 375 40,000  Level Minneapolis Center
Thu 09:54:33 AM 41.7772 -98.0589 251° West 328 377 40,000  Level Minneapolis Center
Thu 09:55:35 AM 41.7478 -98.1736 251° West 328 377 40,000  Level Minneapolis Center
Thu 09:56:37 AM 41.7189 -98.2883 251° West 328 377 40,000  Level Minneapolis Center
Thu 09:57:39 AM 41.6881 -98.4031 250° West 328 377 40,000  Level Minneapolis Center
Thu 09:58:41 AM 41.6531 -98.5381 251° West 324 373 40,000  Level Minneapolis Center
Thu 09:59:43 AM 41.6231 -98.6500 250° West 322 371 40,000  Level Minneapolis Center
Thu 10:00:45 AM 41.5936 -98.7622 251° West 321 369 40,000  Level Minneapolis Center
Thu 10:01:59 AM 41.5650 -98.8742 251° West 321 369 40,000  Level Minneapolis Center
Thu 10:03:13 AM 41.5286 -99.0114 251° West 321 369 40,000  Level Minneapolis Center
Thu 10:04:15 AM 41.4919 -99.1461 250° West 321 369 40,000  Level Minneapolis Center
Thu 10:04:57 AM 41.4697 -99.2311 251° West 320 368 40,000  Level Denver Center
Thu 10:05:59 AM 41.4397 -99.3425 250° West 320 368 40,000  Level Denver Center
Thu 10:07:00 AM 41.4097 -99.4542 250° West 321 369 40,000  Level Denver Center
Thu 10:08:02 AM 41.3797 -99.5656 250° West 320 368 40,000  Level Denver Center
Thu 10:09:03 AM 41.3428 -99.7014 250° West 325 374 40,000  Level Denver Center
Thu 10:10:04 AM 41.3117 -99.8094 249° West 326 375 40,000  Level Denver Center
Thu 10:11:06 AM 41.2822 -99.9178 250° West 327 376 40,000  Level Denver Center
Thu 10:12:07 AM 41.2475 -100.0436 250° West 326 375 40,000  Level Denver Center
Thu 10:13:09 AM 41.2186 -100.1522 251° West 326 375 40,000  Level Denver Center
Thu 10:14:10 AM 41.1869 -100.2806 252° West 327 376 40,000  Level Denver Center
Thu 10:15:24 AM 41.1583 -100.3900 251° West 329 379 40,000  Level Denver Center
Thu 10:16:25 AM 41.1208 -100.5353 251° West 328 377 40,000  Level Denver Center
Thu 10:17:27 AM 41.0922 -100.6428 251° West 326 375 40,000  Level Denver Center
Thu 10:18:29 AM 41.0600 -100.7686 251° West 326 375 40,000  Level Denver Center
Thu 10:19:30 AM 41.0314 -100.8761 251° West 327 376 40,000  Level Denver Center
Thu 10:20:32 AM 40.9981 -101.0006 250° West 324 373 40,000  Level Denver Center
Thu 10:21:33 AM 40.9703 -101.1075 251° West 324 373 40,000  Level Denver Center
Thu 10:22:35 AM 40.9361 -101.2333 250° West 327 376 40,000  Level Denver Center
Thu 10:23:37 AM 40.9122 -101.3225 251° West 325 374 40,000  Level Denver Center
Thu 10:24:39 AM 40.8733 -101.4667 250° West 327 376 40,000 -146 Level Denver Center
Thu 10:25:40 AM 40.8439 -101.5733 250° West 324 373 39,700 -488 Descending Denver Center
Thu 10:26:42 AM 40.8144 -101.6819 250° West 328 377 39,000 -726 Descending Denver Center
Thu 10:27:44 AM 40.7858 -101.7925 251° West 332 382 38,200 -919 Descending Denver Center
Thu 10:28:46 AM 40.7489 -101.9233 250° West 341 392 37,100 -1,016 Descending Denver Center
Thu 10:29:48 AM 40.7128 -102.0533 250° West 337 388 36,100 -1,073 Descending Denver Center
Thu 10:30:49 AM 40.6819 -102.1653 250° West 340 391 34,900 -1,122 Descending Denver Center
Thu 10:31:51 AM 40.6450 -102.3000 250° West 350 403 33,800 -919 Descending Denver Center
Thu 10:32:53 AM 40.6125 -102.4164 250° West 352 405 33,000 -823 Descending Denver Center
Thu 10:33:55 AM 40.5731 -102.5544 249° West 360 414 32,100 -823 Descending Denver Center
Thu 10:34:57 AM 40.5383 -102.6836 251° West 367 422 31,300 -823 Descending Denver Center
Thu 10:35:59 AM 40.5022 -102.8042 249° West 355 409 30,400 -838 Descending Denver Center
Thu 10:37:13 AM 40.4686 -102.9258 250° West 350 403 29,400 -1,015 Descending Denver Center
Thu 10:38:15 AM 40.4275 -103.0644 249° West 346 398 28,100 -1,258 Descending Denver Center
Thu 10:39:17 AM 40.3944 -103.1839 250° West 344 396 26,800 -1,210 Descending Denver Center
Thu 10:40:19 AM 40.3592 -103.3017 249° West 345 397 25,600 -1,258 Descending Denver Center
Thu 10:41:21 AM 40.3206 -103.4339 249° West 331 381 24,200 -1,258 Descending Denver Center
Thu 10:42:23 AM 40.2878 -103.5475 249° West 331 381 23,000 -1,355 Descending Denver Center
Thu 10:43:25 AM 40.2558 -103.6564 249° West 318 366 21,400 -1,839 Descending Denver Center
Thu 10:44:27 AM 40.2236 -103.7675 249° West 314 361 19,200 -1,161 Descending Denver Center
Thu 10:45:29 AM 40.1911 -103.8639 246° West 293 337 19,000 -97 Descending Denver Center
Thu 10:46:31 AM 40.1328 -103.9503 229° Southwest 289 333 19,000 -145 Level Denver Center
Thu 10:47:33 AM 40.0864 -104.0336 234° Southwest 284 327 18,700 -774 Descending Denver Center
Thu 10:48:35 AM 40.0453 -104.1353 242° Southwest 293 337 17,400 -1,306 Descending Denver Center
Thu 10:49:37 AM 40.0025 -104.2267 239° Southwest 297 342 16,000 -1,392 Descending Denver Center
Thu 10:50:40 AM 39.9606 -104.3236 241° Southwest 285 328 14,500 -1,188 Descending Denver Center
Thu 10:51:18 AM 39.9333 -104.3833 239° Southwest 278 320 14,000 -306 Descending Denver TRACON
Thu 10:52:18 AM 39.9000 -104.4667 242° Southwest 273 314 14,000 -350 Level Denver TRACON
Thu 10:53:18 AM 39.8667 -104.5500 242° Southwest 277 319 13,300 -818 Descending Denver TRACON
Thu 10:53:46 AM 39.8436 -104.5892 233° Southwest 276 318 12,800 -800 Descending Denver Center
Thu 10:54:48 AM 39.8369 -104.6867 265° West 264 304 12,100 -823 Descending Denver Center
Thu 10:55:50 AM 39.8075 -104.7594 242° Southwest 224 258 11,100 -968 Descending Denver Center
Thu 10:56:52 AM 39.7472 -104.7911 202° Southwest 221 254 10,100 -1,016 Descending Denver Center
Thu 10:57:54 AM 39.6969 -104.8272 209° Southwest 194 223 9,000 -1,355 Descending Denver Center
Thu 10:58:56 AM 39.6483 -104.8550 204° Southwest 178 205 7,300 -1,258 Descending Denver Center
Thu 10:59:58 AM 39.6100 -104.8525 177° South 131 151 6,400 -677 Descending Denver Center
Thu 11:01:00 AM 39.5756 -104.8506 178° South 114 131 5,900 -484 Descending Denver Center
Thu 11:03:00 AM 39.5701 -104.8493 186° South  Level Estimated

Login

Don't have an account? Register now (free) for customized features, flight alerts, and more!